Time;durP1;ratioP1;P1;durP2;ratioP2;P2;SDS_P1;SDS_P2;PMS_P1;PMS_P2;Temp;Humidity;BMP_temperature;BMP_pressure;BME280_temperature;BME280_humidity;BME280_pressure;Samples;Min_cycle;Max_cycle;Signal;HPM_P1;HPM_P2
2021/04/07 00:00:39;;;;;;;4.43;2.53;;;;;;;0.30;61.92;97831.22;5053732;28;20056;-62
2021/04/07 00:03:07;;;;;;;1.83;1.73;;;;;;;0.29;61.94;97835.44;5054774;28;20033;-63
2021/04/07 00:05:36;;;;;;;4.87;2.57;;;;;;;0.35;61.70;97832.97;5036821;28;20059;-62
2021/04/07 00:08:04;;;;;;;2.83;1.90;;;;;;;0.38;61.54;97837.19;5054099;28;20033;-62
2021/04/07 00:10:32;;;;;;;1.90;1.70;;;;;;;0.36;61.62;97819.53;5054904;28;20430;-63
2021/04/07 00:12:58;;;;;;;4.30;1.97;;;;;;;0.41;61.73;97817.88;5054974;28;20028;-62
2021/04/07 00:15:25;;;;;;;1.90;1.80;;;;;;;0.44;61.80;97812.00;5045271;28;20035;-62
2021/04/07 00:17:51;;;;;;;2.83;2.00;;;;;;;0.52;61.00;97812.91;5054459;28;20025;-62
2021/04/07 00:20:20;;;;;;;2.43;2.13;;;;;;;0.51;61.45;97826.34;5055259;28;20393;-61
2021/04/07 00:22:46;;;;;;;2.20;1.93;;;;;;;0.51;61.34;97820.50;5054187;28;20429;-62
2021/04/07 00:25:12;;;;;;;3.27;2.17;;;;;;;0.58;61.19;97818.00;5054317;28;20029;-64
2021/04/07 00:27:40;;;;;;;2.50;2.30;;;;;;;0.59;61.42;97823.91;5052220;28;20361;-61
2021/04/07 00:30:08;;;;;;;2.77;2.00;;;;;;;0.61;61.10;97823.06;5052800;28;20273;-62
2021/04/07 00:32:33;;;;;;;3.20;1.97;;;;;;;0.56;61.61;97829.75;5053781;28;20360;-62
2021/04/07 00:34:59;;;;;;;5.50;2.47;;;;;;;0.57;61.91;97839.00;5054100;28;20029;-61
2021/04/07 00:37:24;;;;;;;2.63;2.23;;;;;;;0.56;62.32;97832.28;5054155;28;20058;-62
2021/04/07 00:39:50;;;;;;;2.90;2.63;;;;;;;0.46;62.95;97838.09;5055807;28;20281;-63
2021/04/07 00:42:15;;;;;;;2.37;2.10;;;;;;;0.44;63.30;97832.19;5052955;28;20035;-62
2021/04/07 00:44:41;;;;;;;2.20;2.00;;;;;;;0.39;63.94;97838.84;5054764;28;20037;-61
2021/04/07 00:47:06;;;;;;;3.73;2.23;;;;;;;0.38;64.40;97839.72;5051817;28;20056;-62
2021/04/07 00:49:31;;;;;;;3.37;2.50;;;;;;;0.36;64.57;97829.59;5054962;28;20032;-62
2021/04/07 00:51:57;;;;;;;3.23;2.90;;;;;;;0.36;64.87;97836.31;5053814;28;20309;-62
2021/04/07 00:54:23;;;;;;;4.07;2.33;;;;;;;0.29;65.60;97839.63;5056251;28;20447;-62
2021/04/07 00:56:50;;;;;;;3.27;2.77;;;;;;;0.27;65.38;97841.28;5058041;28;20433;-62
2021/04/07 00:59:17;;;;;;;2.57;2.23;;;;;;;0.36;64.90;97837.16;5057647;28;20100;-62
2021/04/07 01:01:43;;;;;;;5.23;2.60;;;;;;;0.38;64.64;97829.63;5026274;28;20064;-62
2021/04/07 01:04:09;;;;;;;4.37;2.50;;;;;;;0.38;64.93;97848.09;5075304;28;20455;-62
2021/04/07 01:06:38;;;;;;;3.80;2.87;;;;;;;0.37;65.30;97845.59;5083131;28;20324;-62
2021/04/07 01:09:04;;;;;;;5.07;2.87;;;;;;;0.35;65.69;97850.59;5078119;28;20111;-62
2021/04/07 01:11:29;;;;;;;4.00;2.47;;;;;;;0.19;66.24;97846.25;5079054;28;20120;-62
2021/04/07 01:13:55;;;;;;;3.47;2.90;;;;;;;0.19;66.07;97848.78;5081543;28;20035;-62
2021/04/07 01:16:21;;;;;;;4.43;2.50;;;;;;;0.27;65.39;97849.69;5082714;28;20789;-62
2021/04/07 01:18:47;;;;;;;2.53;2.27;;;;;;;0.17;65.28;97847.09;5081397;28;20048;-62
2021/04/07 01:21:13;;;;;;;4.67;2.87;;;;;;;0.15;65.44;97844.53;5081038;28;20036;-62
2021/04/07 01:23:44;;;;;;;2.90;2.37;;;;;;;0.19;65.69;97833.66;5069050;28;20066;-62
2021/04/07 01:26:09;;;;;;;2.50;2.30;;;;;;;0.23;66.09;97834.53;5077555;28;20453;-62
2021/04/07 01:28:35;;;;;;;3.93;2.87;;;;;;;0.27;65.54;97827.00;5078714;28;20107;-62
2021/04/07 01:31:01;;;;;;;2.93;2.40;;;;;;;0.34;65.45;97827.91;5081749;28;20382;-62
2021/04/07 01:33:26;;;;;;;2.87;2.53;;;;;;;0.40;65.11;97827.94;5083337;28;20633;-62
2021/04/07 01:35:52;;;;;;;3.93;2.80;;;;;;;0.31;65.46;97825.34;5081175;28;20032;-62
2021/04/07 01:38:19;;;;;;;2.50;2.30;;;;;;;0.27;65.58;97829.53;5083997;28;20066;-63
2021/04/07 01:40:46;;;;;;;5.43;2.83;;;;;;;0.20;65.41;97821.91;5071324;28;20059;-63
2021/04/07 01:43:15;;;;;;;2.63;2.37;;;;;;;-0.01;66.45;97818.38;5085570;28;20028;-62
2021/04/07 01:45:41;;;;;;;3.87;2.70;;;;;;;0.14;64.73;97820.16;5079994;28;20033;-62
2021/04/07 01:48:08;;;;;;;5.73;1.87;;;;;;;0.31;63.72;97820.31;5079875;28;20055;-63
2021/04/07 01:50:35;;;;;;;4.50;2.50;;;;;;;0.36;63.17;97821.19;5081249;28;20039;-62
2021/04/07 01:53:00;;;;;;;3.93;2.67;;;;;;;0.26;63.19;97827.84;5078687;28;20036;-63
2021/04/07 01:55:25;;;;;;;3.80;3.37;;;;;;;0.38;62.98;97824.59;5079342;28;20043;-64
2021/04/07 01:57:51;;;;;;;2.60;2.40;;;;;;;0.40;63.29;97822.91;5081753;28;20060;-63
2021/04/07 02:00:17;;;;;;;3.77;2.60;;;;;;;0.43;63.94;97828.81;5078043;28;20248;-63
2021/04/07 02:02:43;;;;;;;3.43;3.00;;;;;;;0.51;63.96;97835.63;5080856;28;20043;-63
2021/04/07 02:05:09;;;;;;;4.53;3.47;;;;;;;0.39;64.99;97829.63;5051907;28;20290;-63
2021/04/07 02:07:35;;;;;;;5.10;3.13;;;;;;;0.37;65.10;97843.91;5056572;28;20305;-63
2021/04/07 02:10:03;;;;;;;7.33;3.23;;;;;;;0.41;65.28;97848.16;5055069;28;20032;-64
2021/04/07 02:12:28;;;;;;;3.63;3.33;;;;;;;0.43;64.84;97840.56;5056544;28;20032;-63
2021/04/07 02:14:54;;;;;;;3.30;2.87;;;;;;;0.32;64.64;97855.63;5055755;28;20065;-63
2021/04/07 02:17:19;;;;;;;3.17;2.87;;;;;;;0.47;63.54;97853.22;5057164;28;20338;-63
2021/04/07 02:19:44;;;;;;;4.83;3.33;;;;;;;0.52;64.47;97852.41;5055186;28;20040;-63
2021/04/07 02:22:15;;;;;;;3.20;2.60;;;;;;;0.44;64.21;97847.31;5036460;28;20255;-63
2021/04/07 02:24:44;;;;;;;3.20;2.90;;;;;;;0.33;64.19;97851.44;5055036;28;20365;-61
2021/04/07 02:27:16;;;;;;;3.47;2.83;;;;;;;0.37;63.53;97855.66;5054076;28;20162;-61
2021/04/07 02:29:44;;;;;;;7.03;2.83;;;;;;;0.43;62.33;97845.63;5055763;28;20040;-62
2021/04/07 02:32:10;;;;;;;2.73;2.53;;;;;;;0.25;62.93;97842.97;5055577;28;20028;-61
2021/04/07 02:34:36;;;;;;;5.30;3.30;;;;;;;0.08;63.45;97844.47;5057006;28;20036;-62
2021/04/07 02:37:02;;;;;;;4.60;3.27;;;;;;;-0.08;64.48;97846.84;5053808;28;20032;-61
2021/04/07 02:39:28;;;;;;;4.00;2.83;;;;;;;-0.23;65.52;97846.69;5053072;28;20302;-61
2021/04/07 02:41:53;;;;;;;4.43;2.97;;;;;;;-0.36;66.19;97844.03;5053331;28;20051;-61
2021/04/07 02:44:20;;;;;;;2.73;2.53;;;;;;;-0.30;66.15;97855.03;5054829;28;20373;-61
2021/04/07 02:46:46;;;;;;;7.73;4.97;;;;;;;-0.28;66.33;97855.88;5057012;28;20035;-61
2021/04/07 02:49:11;;;;;;;10.00;5.27;;;;;;;-0.41;66.61;97845.63;5054595;28;20025;-60
2021/04/07 02:51:36;;;;;;;7.30;4.27;;;;;;;-0.46;66.09;97848.09;5055134;28;20035;-60
2021/04/07 02:54:03;;;;;;;6.13;3.90;;;;;;;-0.50;66.22;97852.25;5054229;28;20114;-60
2021/04/07 02:56:29;;;;;;;5.63;3.53;;;;;;;-0.63;66.26;97837.84;5054627;28;20033;-60
2021/04/07 02:58:55;;;;;;;8.33;4.87;;;;;;;-0.61;66.40;97845.41;5054803;28;20033;-60
2021/04/07 03:01:20;;;;;;;6.57;3.33;;;;;;;-0.67;66.49;97846.16;5054687;28;20090;-60
2021/04/07 03:03:45;;;;;;;3.07;2.73;;;;;;;-0.73;66.53;97845.25;5057644;28;20425;-62
2021/04/07 03:06:11;;;;;;;4.63;2.97;;;;;;;-0.65;66.66;97857.13;5072762;28;20056;-59
2021/04/07 03:08:36;;;;;;;5.37;3.60;;;;;;;-0.63;66.60;97862.16;5075257;28;20273;-59
2021/04/07 03:11:02;;;;;;;4.70;3.17;;;;;;;-0.62;66.31;97858.81;5073163;28;20031;-59
2021/04/07 03:13:27;;;;;;;3.30;2.87;;;;;;;-0.54;66.12;97860.59;5074889;28;20468;-60
2021/04/07 03:15:52;;;;;;;4.40;2.67;;;;;;;-0.56;65.90;97876.53;5074998;28;20028;-59
2021/04/07 03:18:18;;;;;;;7.17;4.13;;;;;;;-0.52;65.67;97876.59;5075081;28;20270;-62
2021/04/07 03:20:43;;;;;;;5.57;4.53;;;;;;;-0.29;65.12;97886.06;5073403;28;20029;-60
2021/04/07 03:23:08;;;;;;;5.47;4.03;;;;;;;-0.19;65.13;97893.75;5074413;28;20032;-61
2021/04/07 03:25:34;;;;;;;4.83;3.47;;;;;;;0.02;66.01;97889.75;5074504;28;20032;-59
2021/04/07 03:27:59;;;;;;;4.30;3.37;;;;;;;0.05;66.40;97893.16;5074565;28;20040;-59
2021/04/07 03:30:25;;;;;;;7.70;4.40;;;;;;;0.14;66.89;97894.91;5074536;28;20032;-60
2021/04/07 03:32:50;;;;;;;5.57;4.20;;;;;;;0.12;67.28;97897.44;5075242;28;20048;-60
2021/04/07 03:35:16;;;;;;;4.30;3.63;;;;;;;0.12;67.35;97896.59;5073582;28;20081;-60
2021/04/07 03:37:41;;;;;;;4.07;3.67;;;;;;;0.16;66.90;97889.09;5074961;28;20024;-60
2021/04/07 03:40:07;;;;;;;5.77;3.87;;;;;;;0.17;66.66;97897.50;5073513;28;20154;-60
2021/04/07 03:42:32;;;;;;;5.23;3.80;;;;;;;0.11;66.64;97892.38;5073806;28;20115;-60
2021/04/07 03:44:58;;;;;;;4.77;3.80;;;;;;;0.12;66.74;97891.56;5072874;28;20139;-60
2021/04/07 03:47:23;;;;;;;7.03;4.03;;;;;;;0.04;66.88;97894.00;5073083;28;20468;-59
2021/04/07 03:49:49;;;;;;;6.37;3.93;;;;;;;0.04;66.76;97896.53;5074485;28;20028;-60
2021/04/07 03:52:14;;;;;;;4.73;3.90;;;;;;;0.15;66.38;97906.69;5072612;28;20039;-60
2021/04/07 03:54:40;;;;;;;4.20;3.37;;;;;;;0.09;66.62;97904.09;5072262;28;20289;-60
2021/04/07 03:57:05;;;;;;;4.40;3.60;;;;;;;0.07;66.59;97903.25;5073118;28;20052;-60
2021/04/07 03:59:31;;;;;;;5.87;4.20;;;;;;;0.02;67.00;97907.41;5074639;28;20032;-62
2021/04/07 04:01:56;;;;;;;6.00;3.80;;;;;;;0.16;66.12;97903.34;5072909;28;20040;-60
2021/04/07 04:04:21;;;;;;;5.17;4.00;;;;;;;0.22;66.24;97901.72;5060448;28;20394;-60
2021/04/07 04:06:52;;;;;;;6.17;4.53;;;;;;;0.15;66.28;97900.00;5053057;28;20033;-60
2021/04/07 04:09:17;;;;;;;7.90;5.20;;;;;;;0.09;65.80;97911.66;5055463;28;20040;-60
2021/04/07 04:11:42;;;;;;;6.47;5.40;;;;;;;0.07;66.31;97904.09;5054364;28;20373;-60
2021/04/07 04:14:08;;;;;;;10.03;5.90;;;;;;;-0.01;66.10;97895.63;5050754;28;20082;-60
2021/04/07 04:16:33;;;;;;;6.13;4.93;;;;;;;0.11;65.56;97922.63;5053696;28;20021;-61
2021/04/07 04:18:58;;;;;;;7.23;5.27;;;;;;;0.06;65.50;97912.50;5052382;28;20547;-60
2021/04/07 04:21:24;;;;;;;8.83;4.27;;;;;;;0.09;65.01;97926.78;5054025;28;20357;-60
2021/04/07 04:23:49;;;;;;;5.30;4.00;;;;;;;0.15;64.47;97934.41;5052639;28;20286;-60
2021/04/07 04:26:15;;;;;;;5.47;3.27;;;;;;;0.21;64.20;97927.75;5054052;28;20036;-60
2021/04/07 04:28:40;;;;;;;4.80;3.80;;;;;;;0.24;64.38;97930.31;5052599;28;20047;-60
2021/04/07 04:31:05;;;;;;;5.73;3.90;;;;;;;0.23;64.49;97938.72;5054703;28;20036;-60
2021/04/07 04:33:31;;;;;;;5.07;4.20;;;;;;;0.24;64.87;97937.03;5053826;28;20033;-60
2021/04/07 04:35:57;;;;;;;5.97;4.03;;;;;;;0.22;65.12;97944.56;5054044;28;20076;-62
2021/04/07 04:38:24;;;;;;;8.90;3.50;;;;;;;0.29;64.81;97942.97;5053113;28;20032;-61
2021/04/07 04:40:49;;;;;;;6.87;4.30;;;;;;;0.31;64.75;97952.22;5053879;28;20068;-60
2021/04/07 04:43:15;;;;;;;5.10;3.50;;;;;;;0.22;65.08;97946.25;5053570;28;20072;-61
2021/04/07 04:45:40;;;;;;;4.37;3.30;;;;;;;0.24;64.96;97949.63;5053624;28;20266;-60
2021/04/07 04:48:06;;;;;;;4.13;3.37;;;;;;;0.21;65.40;97952.13;5052726;28;20029;-60
2021/04/07 04:50:32;;;;;;;6.17;4.37;;;;;;;0.25;65.32;97948.81;5054413;28;20405;-60
2021/04/07 04:52:57;;;;;;;5.77;3.70;;;;;;;0.30;65.23;97947.16;5052841;28;20045;-60
2021/04/07 04:55:22;;;;;;;3.67;3.20;;;;;;;0.37;65.11;97961.53;5054079;28;20032;-60
2021/04/07 04:57:48;;;;;;;6.37;3.97;;;;;;;0.39;65.30;97964.91;5052297;28;20021;-60
2021/04/07 05:00:14;;;;;;;4.83;3.23;;;;;;;0.36;65.40;97972.44;5052705;28;20091;-60
2021/04/07 05:02:39;;;;;;;5.10;3.73;;;;;;;0.38;65.33;97965.75;5053959;28;20342;-61
2021/04/07 05:05:05;;;;;;;5.33;3.80;;;;;;;0.39;65.64;97970.81;5051744;28;20124;-62
2021/04/07 05:07:31;;;;;;;4.60;3.03;;;;;;;0.41;65.82;97970.81;5053193;28;20082;-61
2021/04/07 05:09:56;;;;;;;4.17;3.50;;;;;;;0.49;65.38;97980.97;5037099;28;20263;-61
2021/04/07 05:12:21;;;;;;;6.73;3.83;;;;;;;0.49;65.47;97976.78;5052996;28;20036;-61
2021/04/07 05:14:50;;;;;;;4.73;3.53;;;;;;;0.62;64.52;97983.66;5053626;28;20025;-61
2021/04/07 05:17:16;;;;;;;3.17;2.87;;;;;;;0.67;64.03;97971.94;5052528;28;20116;-61
2021/04/07 05:19:41;;;;;;;4.30;3.37;;;;;;;0.71;63.80;97978.69;5054144;28;20174;-60
2021/04/07 05:22:06;;;;;;;3.63;3.30;;;;;;;0.82;63.82;97984.66;5052058;28;20033;-60
2021/04/07 05:24:32;;;;;;;3.47;3.17;;;;;;;0.82;64.23;97989.72;5053321;28;20040;-60
2021/04/07 05:26:58;;;;;;;4.00;3.17;;;;;;;0.89;63.79;97990.63;5036862;28;20116;-60
2021/04/07 05:29:24;;;;;;;6.10;3.07;;;;;;;0.91;63.99;97984.75;5053271;28;20024;-60
2021/04/07 05:31:49;;;;;;;5.00;3.37;;;;;;;1.00;63.91;97983.13;5053223;28;20377;-61
2021/04/07 05:34:15;;;;;;;2.80;2.60;;;;;;;1.10;63.39;97988.28;5041621;28;20052;-60
2021/04/07 05:36:40;;;;;;;5.70;3.37;;;;;;;1.18;63.49;97985.81;5052095;28;20055;-60
2021/04/07 05:39:05;;;;;;;9.03;3.83;;;;;;;1.14;63.80;97995.03;5054504;28;20306;-60
2021/04/07 05:41:31;;;;;;;5.23;3.93;;;;;;;1.23;63.36;98004.38;5038827;28;20139;-60
2021/04/07 05:43:58;;;;;;;6.97;3.77;;;;;;;1.23;63.14;98001.84;5055803;28;20418;-60
2021/04/07 05:46:23;;;;;;;4.87;3.17;;;;;;;1.21;63.26;98009.38;5039863;28;20140;-60
2021/04/07 05:48:49;;;;;;;3.47;3.17;;;;;;;1.29;63.42;98011.97;5056534;28;20450;-60
2021/04/07 05:51:15;;;;;;;3.83;3.40;;;;;;;1.27;64.05;98011.13;5056777;28;20036;-62
2021/04/07 05:53:41;;;;;;;2.93;2.67;;;;;;;1.26;63.60;98022.06;5057069;28;20041;-62
2021/04/07 05:56:06;;;;;;;5.67;3.60;;;;;;;1.33;64.40;98016.19;5055776;28;20271;-60
2021/04/07 05:58:32;;;;;;;3.63;2.90;;;;;;;1.46;64.40;98019.66;5055953;28;20384;-59
2021/04/07 06:00:57;;;;;;;4.93;3.67;;;;;;;1.56;64.74;98006.28;5054968;28;20164;-61
2021/04/07 06:03:23;;;;;;;5.00;3.40;;;;;;;1.62;64.55;98014.72;5055006;28;20048;-60
2021/04/07 06:05:50;;;;;;;3.83;3.43;;;;;;;1.64;64.46;98014.75;5052480;28;20361;-61
2021/04/07 06:08:16;;;;;;;3.43;2.97;;;;;;;1.60;64.33;98016.41;5036759;28;20020;-59
2021/04/07 06:10:43;;;;;;;4.10;3.70;;;;;;;1.70;63.96;98013.09;5054506;28;20037;-60
2021/04/07 06:13:10;;;;;;;4.60;3.33;;;;;;;1.75;62.74;98029.13;5053814;28;20040;-59
2021/04/07 06:15:38;;;;;;;5.13;3.60;;;;;;;1.96;62.72;98033.44;5055542;28;20040;-60
2021/04/07 06:18:05;;;;;;;5.87;3.43;;;;;;;2.00;62.26;98032.63;5040476;28;20428;-61
2021/04/07 06:20:39;;;;;;;4.33;3.43;;;;;;;1.97;61.81;98035.13;5038173;28;20025;-59
2021/04/07 06:23:07;;;;;;;4.57;3.57;;;;;;;2.14;61.11;98022.56;5060469;28;20697;-63
2021/04/07 06:25:33;;;;;;;3.63;2.93;;;;;;;2.33;61.42;98037.00;5061071;28;20320;-60
2021/04/07 06:28:00;;;;;;;3.50;3.20;;;;;;;2.44;60.43;98035.34;5052255;28;20043;-62
2021/04/07 06:30:43;;;;;;;3.43;2.57;;;;;;;2.20;59.60;98045.38;5055336;28;20390;-62
2021/04/07 06:33:26;;;;;;;4.20;3.27;;;;;;;2.34;59.23;98051.31;5042100;28;20090;-62
2021/04/07 06:35:55;;;;;;;3.70;3.00;;;;;;;2.31;58.72;98051.31;5023615;28;20390;-62
2021/04/07 06:38:21;;;;;;;5.87;3.70;;;;;;;2.37;58.59;98060.63;5050974;28;20044;-61
2021/04/07 06:40:48;;;;;;;5.07;3.57;;;;;;;2.50;58.70;98069.94;5054477;28;20055;-62
2021/04/07 06:43:15;;;;;;;3.33;2.97;;;;;;;2.59;58.62;98068.28;5054108;28;20317;-62
2021/04/07 06:45:41;;;;;;;5.37;2.90;;;;;;;2.54;58.43;98064.91;5053324;28;20056;-62
2021/04/07 06:48:10;;;;;;;8.03;3.47;;;;;;;2.65;57.67;98063.25;5051371;28;20076;-62
2021/04/07 06:50:37;;;;;;;6.13;2.90;;;;;;;2.73;57.54;98069.16;5052190;28;20503;-62
2021/04/07 06:53:05;;;;;;;4.33;2.83;;;;;;;2.80;57.62;98071.72;5053537;28;20024;-62
2021/04/07 06:55:31;;;;;;;5.77;3.20;;;;;;;2.86;56.54;98064.13;5057931;28;20043;-63
2021/04/07 06:57:56;;;;;;;6.63;3.13;;;;;;;2.81;56.40;98083.53;5049070;28;20041;-62
2021/04/07 07:00:26;;;;;;;4.70;3.23;;;;;;;2.79;56.68;98075.09;5051440;28;20037;-62
2021/04/07 07:03:18;;;;;;;3.87;3.50;;;;;;;3.02;57.03;98073.44;5054245;28;20029;-63
2021/04/07 07:05:49;;;;;;;4.00;3.57;;;;;;;3.22;56.72;98084.47;5071784;28;20033;-63
2021/04/07 07:08:16;;;;;;;3.30;3.10;;;;;;;3.18;57.37;98072.66;5075820;28;20036;-62
2021/04/07 07:10:48;;;;;;;3.20;2.70;;;;;;;3.27;56.34;98076.88;5074019;28;20089;-62
2021/04/07 07:13:19;;;;;;;3.30;3.00;;;;;;;3.32;55.65;98076.00;5075495;28;20032;-63
2021/04/07 07:15:45;;;;;;;2.90;2.57;;;;;;;3.17;55.38;98081.09;5077775;28;20386;-63
2021/04/07 07:18:25;;;;;;;3.03;2.73;;;;;;;2.92;56.46;98065.00;5081211;28;20090;-63
2021/04/07 07:20:52;;;;;;;4.10;3.40;;;;;;;3.14;56.70;98089.50;5076549;28;20028;-64
2021/04/07 07:23:28;;;;;;;4.27;2.60;;;;;;;3.18;56.42;98090.38;5082178;28;20041;-63
2021/04/07 07:26:05;;;;;;;2.33;2.13;;;;;;;3.00;57.22;98092.88;5077149;28;20024;-63
2021/04/07 07:28:51;;;;;;;3.50;2.20;;;;;;;2.67;58.15;98106.28;5081081;28;20458;-62
2021/04/07 07:31:20;;;;;;;2.93;1.80;;;;;;;2.34;58.79;98101.91;5075894;28;20208;-63
2021/04/07 07:33:46;;;;;;;3.37;1.87;;;;;;;2.40;59.43;98106.16;5077727;28;20043;-63
2021/04/07 07:36:12;;;;;;;2.30;2.10;;;;;;;2.40;58.96;98116.25;5076084;28;20369;-61
2021/04/07 07:38:51;;;;;;;2.23;2.00;;;;;;;2.46;59.19;98122.19;5060259;28;20028;-60
2021/04/07 07:41:35;;;;;;;1.90;1.80;;;;;;;2.49;58.07;98122.22;5074318;28;20032;-59
2021/04/07 07:44:01;;;;;;;2.10;1.90;;;;;;;2.47;58.41;98110.38;5077180;28;20126;-60
2021/04/07 07:46:28;;;;;;;1.70;1.60;;;;;;;2.58;58.43;98116.34;5075225;28;20060;-61
2021/04/07 07:48:54;;;;;;;1.80;1.70;;;;;;;2.49;57.55;98113.78;5074885;28;20025;-61
2021/04/07 07:51:22;;;;;;;2.00;1.67;;;;;;;2.85;57.43;98116.44;5075961;28;20044;-60
2021/04/07 07:53:49;;;;;;;1.77;1.57;;;;;;;2.97;55.44;98123.25;5074686;28;20068;-61
2021/04/07 07:56:17;;;;;;;1.97;1.60;;;;;;;2.79;55.79;98118.13;5074962;28;20052;-60
2021/04/07 07:58:47;;;;;;;2.37;2.07;;;;;;;3.13;56.27;98128.34;5076268;28;20385;-60
2021/04/07 08:01:15;;;;;;;2.97;2.07;;;;;;;3.04;55.91;98112.28;5059760;28;20028;-63
2021/04/07 08:03:41;;;;;;;1.93;1.77;;;;;;;3.08;55.83;98129.16;5050791;28;20065;-63
2021/04/07 08:06:08;;;;;;;3.40;2.00;;;;;;;3.21;56.12;98133.44;5052963;28;20457;-63
2021/04/07 08:08:33;;;;;;;2.37;2.17;;;;;;;3.00;55.87;98129.16;5052673;28;20036;-63
2021/04/07 08:11:01;;;;;;;3.33;2.40;;;;;;;3.32;56.34;98134.28;5053468;28;20035;-63
2021/04/07 08:13:34;;;;;;;2.37;2.17;;;;;;;3.30;55.66;98132.59;5051528;28;20040;-63
2021/04/07 08:16:00;;;;;;;3.90;2.17;;;;;;;3.27;55.26;98135.94;5043225;28;20037;-63
2021/04/07 08:18:26;;;;;;;3.17;1.97;;;;;;;3.23;55.95;98147.78;5052346;28;20162;-60
2021/04/07 08:20:52;;;;;;;3.10;2.13;;;;;;;3.14;54.74;98146.94;5053291;28;20048;-60
2021/04/07 08:23:20;;;;;;;4.07;2.10;;;;;;;3.14;55.53;98155.34;5035517;28;20116;-60
2021/04/07 08:25:51;;;;;;;2.67;2.10;;;;;;;3.32;56.13;98159.59;5055310;28;20052;-59
2021/04/07 08:28:17;;;;;;;2.60;2.10;;;;;;;3.45;54.84;98151.19;5052773;28;20037;-59
2021/04/07 08:30:44;;;;;;;5.80;2.10;;;;;;;3.38;54.01;98163.84;5054563;28;20275;-61
2021/04/07 08:33:09;;;;;;;4.97;2.23;;;;;;;3.22;53.15;98160.44;5052646;28;20029;-59
2021/04/07 08:35:35;;;;;;;4.93;2.57;;;;;;;3.31;54.43;98160.44;5053852;28;20419;-59
2021/04/07 08:38:04;;;;;;;2.97;2.77;;;;;;;3.47;54.48;98167.25;5052171;28;20119;-59
2021/04/07 08:40:40;;;;;;;3.67;2.77;;;;;;;3.63;52.58;98173.19;5052335;28;20043;-60
2021/04/07 08:43:07;;;;;;;3.47;2.20;;;;;;;3.63;52.75;98166.41;5053884;28;20382;-60
2021/04/07 08:45:37;;;;;;;3.00;2.53;;;;;;;3.72;52.53;98183.34;5052038;28;20047;-60
2021/04/07 08:48:11;;;;;;;2.23;2.03;;;;;;;3.67;51.21;98178.25;5053938;28;20028;-60
2021/04/07 08:50:37;;;;;;;3.67;2.47;;;;;;;3.81;52.04;98172.34;5054059;28;20298;-60
2021/04/07 08:53:11;;;;;;;3.03;2.73;;;;;;;3.87;51.61;98164.72;5054655;28;20037;-61
2021/04/07 08:55:40;;;;;;;3.13;2.83;;;;;;;3.78;51.16;98174.91;5053993;28;20040;-60
2021/04/07 08:58:06;;;;;;;3.73;2.70;;;;;;;3.94;51.53;98177.44;5038396;28;20247;-60
2021/04/07 09:00:37;;;;;;;2.83;2.23;;;;;;;4.12;51.74;98181.63;5051468;28;20067;-60
2021/04/07 09:03:14;;;;;;;3.13;2.83;;;;;;;4.24;51.20;98185.84;5053766;28;20112;-60
2021/04/07 09:05:43;;;;;;;3.93;3.50;;;;;;;4.07;51.68;98189.22;5032366;28;20037;-60
2021/04/07 09:08:09;;;;;;;4.47;2.80;;;;;;;3.83;50.71;98207.00;5054362;28;20029;-60
2021/04/07 09:10:42;;;;;;;3.90;2.30;;;;;;;4.21;50.79;98201.91;5047628;28;20393;-60
2021/04/07 09:13:13;;;;;;;3.13;2.70;;;;;;;4.01;51.11;98201.94;5051830;28;20286;-60
2021/04/07 09:15:53;;;;;;;2.90;2.53;;;;;;;3.93;50.76;98198.56;5057330;28;20159;-60
2021/04/07 09:18:37;;;;;;;2.93;2.40;;;;;;;4.31;51.47;98207.84;5055490;28;20029;-61
2021/04/07 09:21:04;;;;;;;3.50;2.97;;;;;;;4.40;49.66;98212.91;5040703;28;20390;-60
2021/04/07 09:23:32;;;;;;;8.10;2.93;;;;;;;4.54;48.09;98226.44;5054734;28;20362;-60
2021/04/07 09:26:10;;;;;;;2.00;1.80;;;;;;;4.16;48.60;98221.34;5053827;28;20163;-60
2021/04/07 09:28:41;;;;;;;2.60;1.60;;;;;;;4.06;48.42;98224.75;5053739;28;20036;-61
2021/04/07 09:31:16;;;;;;;2.30;2.10;;;;;;;4.32;48.76;98207.00;5053977;28;20460;-61
2021/04/07 09:33:52;;;;;;;;;;;;;;;4.14;48.52;98235.75;5056475;28;20123;-61
2021/04/07 09:36:25;;;;;;;1.95;1.77;;;;;;;3.64;51.83;98248.38;5030641;28;19967;-61
2021/04/07 09:38:52;;;;;;;2.00;1.90;;;;;;;3.62;52.46;98255.13;5052807;28;20029;-61
2021/04/07 09:41:19;;;;;;;4.07;3.17;;;;;;;3.59;55.03;98261.03;5050518;28;20055;-60
2021/04/07 09:43:45;;;;;;;2.47;2.27;;;;;;;3.14;60.14;98281.97;5052010;28;20354;-63
2021/04/07 09:46:11;;;;;;;2.83;2.53;;;;;;;2.78;61.22;98279.25;5051914;28;20035;-61
2021/04/07 09:48:46;;;;;;;4.43;3.47;;;;;;;2.67;64.21;98280.88;5041839;28;20039;-61
2021/04/07 09:51:16;;;;;;;3.83;3.00;;;;;;;1.98;69.12;98273.59;5057430;28;20025;-60
2021/04/07 09:53:42;;;;;;;6.17;4.63;;;;;;;2.37;68.55;98271.41;5054119;28;20066;-60
2021/04/07 09:56:07;;;;;;;3.93;2.90;;;;;;;2.45;65.21;98277.34;5053059;28;20495;-60
2021/04/07 09:58:52;;;;;;;3.20;2.90;;;;;;;2.27;67.37;98285.66;5056089;28;20044;-60
2021/04/07 10:01:18;;;;;;;4.80;3.43;;;;;;;2.00;70.16;98292.13;5059472;28;20119;-60
2021/04/07 10:03:52;;;;;;;6.60;4.63;;;;;;;1.36;78.42;98309.13;5056303;28;20405;-60
2021/04/07 10:06:23;;;;;;;9.00;5.50;;;;;;;1.44;81.21;98299.16;5053744;28;20056;-60
2021/04/07 10:09:05;;;;;;;5.70;4.37;;;;;;;1.32;78.92;98307.41;5028858;28;20028;-60
2021/04/07 10:11:32;;;;;;;7.07;3.57;;;;;;;1.22;78.44;98308.97;5055766;28;20029;-60
2021/04/07 10:14:01;;;;;;;6.57;3.87;;;;;;;1.54;78.56;98296.72;5056848;28;20029;-60
2021/04/07 10:16:35;;;;;;;7.87;4.37;;;;;;;2.18;77.18;98289.78;5056024;28;20051;-60
2021/04/07 10:19:04;;;;;;;9.10;4.70;;;;;;;2.32;74.43;98292.41;5055409;28;20051;-60
2021/04/07 10:21:29;;;;;;;4.60;3.13;;;;;;;2.31;72.95;98296.63;5054744;28;20040;-61
2021/04/07 10:23:58;;;;;;;3.30;2.63;;;;;;;2.45;70.40;98300.13;5043849;28;20033;-60
2021/04/07 10:26:24;;;;;;;3.73;2.90;;;;;;;2.62;70.15;98296.03;5053360;28;20370;-60
2021/04/07 10:28:57;;;;;;;2.67;2.47;;;;;;;2.22;71.00;98311.72;5056779;28;20036;-60
2021/04/07 10:31:23;;;;;;;5.77;3.37;;;;;;;2.10;73.91;98309.09;5055663;28;20028;-60
2021/04/07 10:33:49;;;;;;;2.93;2.63;;;;;;;2.01;73.41;98302.25;5055927;28;20040;-61
2021/04/07 10:36:14;;;;;;;4.07;3.00;;;;;;;2.11;73.22;98308.25;5053591;28;20029;-60
2021/04/07 10:38:40;;;;;;;4.23;2.93;;;;;;;2.22;72.47;98306.66;5039503;28;20352;-60
2021/04/07 10:41:06;;;;;;;4.53;3.17;;;;;;;2.23;71.59;98321.00;5054854;28;20047;-60
2021/04/07 10:43:34;;;;;;;3.63;3.23;;;;;;;2.21;72.35;98317.59;5040946;28;20311;-60
2021/04/07 10:46:03;;;;;;;4.50;3.33;;;;;;;2.32;72.70;98318.56;5054723;28;20425;-61
2021/04/07 10:48:29;;;;;;;5.00;3.57;;;;;;;2.34;72.48;98314.34;5052237;28;20029;-60
2021/04/07 10:50:56;;;;;;;7.30;3.40;;;;;;;2.52;70.81;98326.31;5052022;28;20497;-60
2021/04/07 10:53:42;;;;;;;5.70;3.60;;;;;;;2.69;70.62;98322.22;5043596;28;20086;-59
2021/04/07 10:56:14;;;;;;;;;;;;;;;2.64;69.31;98322.19;5040370;28;20021;-61
2021/04/07 10:58:41;;;;;;;6.17;2.87;;;;;;;2.48;68.25;98324.59;5049499;28;19912;-62
2021/04/07 11:01:07;;;;;;;2.73;2.53;;;;;;;2.13;68.99;98342.81;5053461;28;20029;-59
2021/04/07 11:03:35;;;;;;;3.07;2.77;;;;;;;1.32;76.41;98358.75;5054977;28;20049;-60
2021/04/07 11:06:00;;;;;;;3.77;2.73;;;;;;;1.08;76.38;98345.81;5052231;28;20080;-61
2021/04/07 11:08:38;;;;;;;4.00;2.97;;;;;;;1.33;75.55;98346.97;5054673;28;20116;-60
2021/04/07 11:11:04;;;;;;;4.50;3.73;;;;;;;1.21;75.39;98351.88;5054990;28;20370;-60
2021/04/07 11:13:31;;;;;;;4.13;3.47;;;;;;;1.29;74.58;98355.34;5054955;28;20072;-59
2021/04/07 11:16:07;;;;;;;4.10;3.57;;;;;;;1.63;74.00;98356.59;5038111;28;20029;-60
2021/04/07 11:18:32;;;;;;;4.47;3.27;;;;;;;1.78;71.81;98371.97;5054854;28;20032;-61
2021/04/07 11:20:58;;;;;;;3.43;3.10;;;;;;;1.49;72.78;98371.59;5055587;28;20040;-61
2021/04/07 11:23:23;;;;;;;4.23;3.50;;;;;;;1.49;73.36;98389.28;5055208;28;20044;-60
2021/04/07 11:25:50;;;;;;;4.17;3.33;;;;;;;1.23;74.80;98383.88;5056007;28;20074;-60
2021/04/07 11:28:20;;;;;;;5.17;3.40;;;;;;;0.84;77.60;98416.13;5054534;28;20094;-60
2021/04/07 11:34:20;;;;;;;4.47;3.38;;;;;;;0.16;83.88;98409.91;5054951;28;20382;-60
2021/04/07 11:36:31;;;;;;;6.53;4.40;;;;;;;0.11;84.97;98406.44;5043195;28;20053;-60
2021/04/07 11:46:35;;;;;;;6.87;4.50;;;;;;;0.05;85.59;98399.63;5052479;28;20029;-62
2021/04/07 11:49:02;;;;;;;9.07;4.87;;;;;;;0.28;84.96;98393.34;5052463;28;20443;-61
2021/04/07 11:51:28;;;;;;;8.37;4.03;;;;;;;0.55;83.53;98395.47;5053191;28;20024;-61
2021/04/07 11:53:53;;;;;;;9.57;4.37;;;;;;;1.02;81.97;98390.31;5053785;28;20445;-60